Terminal Aerodrome Forecast
Issued by NWS

Home | Current Version | Previous Version | Graphics & Text | Print | Product List | Glossary On
Versions: 1 2 3 4 5 6 7 8 9 10 11 12 13 14 15
998
FTUS42 KMHX 251121
TAFOAJ
TAF
KOAJ 251121Z 2512/2612 23004KT P6SM OVC004
     FM251400 27005KT P6SM BKN040
     FM252100 VRB03KT P6SM SCT025 BKN150
     FM260800 VRB03KT 5SM BR BKN050
      AMD LTD TO CLD VIS AND WIND=

USA.gov is the U.S. government's official web portal to all federal, state and local government web resources and services.